Time;durP1;ratioP1;P1;durP2;ratioP2;P2;SDS_P1;SDS_P2;PMS_P1;PMS_P2;Temp;Humidity;BMP_temperature;BMP_pressure;BME280_temperature;BME280_humidity;BME280_pressure;Samples;Min_cycle;Max_cycle;Signal;HPM_P1;HPM_P2
2021/05/28 00:01:00;;;;;;;6.03;2.50;;;;;;;19.59;56.46;99720.53;2057406;28;20355;-57
2021/05/28 00:02:00;;;;;;;5.00;3.00;;;;;;;19.58;56.47;99725.13;2056632;28;20166;-56
2021/05/28 00:03:01;;;;;;;8.13;3.33;;;;;;;19.58;56.37;99724.28;2056998;28;20026;-56
2021/05/28 00:04:01;;;;;;;4.93;3.03;;;;;;;19.59;56.50;99723.25;2056073;28;20102;-56
2021/05/28 00:05:03;;;;;;;5.83;2.90;;;;;;;19.58;56.54;99729.75;2056776;28;20062;-56
2021/05/28 00:06:04;;;;;;;;;;;;;;;19.53;56.59;99726.66;2056758;28;20049;-56
2021/05/28 00:07:04;;;;;;;6.63;3.00;;;;;;;19.54;56.61;99718.28;2056944;28;19968;-56
2021/05/28 00:08:05;;;;;;;5.57;2.87;;;;;;;19.54;56.61;99723.75;2057041;28;20063;-56
2021/05/28 00:09:06;;;;;;;6.03;2.53;;;;;;;19.56;56.55;99720.84;2056711;28;20034;-56
2021/05/28 00:10:07;;;;;;;4.53;2.90;;;;;;;19.56;56.56;99726.31;2056166;28;20089;-56
2021/05/28 00:11:08;;;;;;;4.70;2.85;;;;;;;19.56;56.62;99721.72;2056679;28;20385;-56
2021/05/28 00:12:08;;;;;;;3.93;2.50;;;;;;;19.55;56.50;99724.59;2057052;28;20079;-56
2021/05/28 00:13:09;;;;;;;5.20;3.10;;;;;;;19.56;56.61;99720.84;2057423;28;20070;-56
2021/05/28 00:14:10;;;;;;;4.30;2.70;;;;;;;19.57;56.62;99717.09;2056905;28;20037;-56
2021/05/28 00:15:12;;;;;;;4.83;3.10;;;;;;;19.56;56.53;99716.25;2057231;28;20480;-56
2021/05/28 00:16:13;;;;;;;6.05;3.40;;;;;;;19.56;56.55;99721.72;2055868;28;20546;-59
2021/05/28 00:17:13;;;;;;;4.93;2.90;;;;;;;19.56;56.51;99721.72;2056742;28;20034;-57
2021/05/28 00:18:13;;;;;;;4.90;2.90;;;;;;;19.56;56.58;99721.72;2057459;28;20062;-58
2021/05/28 00:19:14;;;;;;;6.87;3.10;;;;;;;19.56;56.43;99721.72;2056620;28;20031;-59
2021/05/28 00:20:15;;;;;;;7.43;3.33;;;;;;;19.57;56.50;99719.81;2057360;28;20467;-57
2021/05/28 00:21:15;;;;;;;5.30;2.90;;;;;;;19.55;56.62;99720.00;2056188;28;20102;-58
2021/05/28 00:22:16;;;;;;;7.90;3.10;;;;;;;19.55;56.52;99717.28;2056102;28;20065;-55
2021/05/28 00:23:16;;;;;;;5.67;2.93;;;;;;;19.56;56.45;99718.97;2057272;28;20483;-55
2021/05/28 00:24:18;;;;;;;4.87;2.73;;;;;;;19.56;56.47;99720.84;2053643;28;20037;-57
2021/05/28 00:25:18;;;;;;;4.10;2.75;;;;;;;19.57;56.49;99719.81;2056839;28;20303;-57
2021/05/28 00:26:19;;;;;;;4.60;2.50;;;;;;;19.55;56.47;99714.53;2056879;28;20465;-58
2021/05/28 00:27:20;;;;;;;4.23;3.00;;;;;;;19.56;56.44;99718.97;2056123;28;20026;-58
2021/05/28 00:28:20;;;;;;;4.63;2.90;;;;;;;19.57;56.42;99719.81;2056761;28;20421;-58
2021/05/28 00:29:21;;;;;;;5.37;2.63;;;;;;;19.55;56.52;99714.53;2056575;28;20357;-58
2021/05/28 00:30:21;;;;;;;5.43;3.17;;;;;;;19.56;56.46;99716.25;2057371;28;20034;-58
2021/05/28 00:31:22;;;;;;;4.40;2.80;;;;;;;19.56;56.46;99716.25;2056836;28;20026;-58
2021/05/28 00:32:22;;;;;;;7.47;3.30;;;;;;;19.56;56.42;99716.25;2056134;28;20089;-58
2021/05/28 00:33:23;;;;;;;8.10;3.43;;;;;;;19.55;56.59;99714.53;2057225;28;20113;-58
2021/05/28 00:34:23;;;;;;;4.47;2.37;;;;;;;19.55;56.55;99714.53;2055386;28;20087;-58
2021/05/28 00:35:24;;;;;;;4.93;3.03;;;;;;;19.55;56.42;99720.00;2057414;28;20023;-58
2021/05/28 00:36:24;;;;;;;5.60;3.17;;;;;;;19.55;56.53;99716.38;2055496;28;20605;-58
2021/05/28 00:37:25;;;;;;;3.80;2.57;;;;;;;19.55;56.71;99714.53;2056682;28;20041;-58
2021/05/28 00:38:25;;;;;;;4.63;2.83;;;;;;;19.55;56.54;99717.28;2056857;28;20035;-58
2021/05/28 00:39:26;;;;;;;4.87;2.67;;;;;;;19.55;56.44;99720.00;2056308;28;20062;-58
2021/05/28 00:40:26;;;;;;;5.80;3.03;;;;;;;19.55;56.59;99719.13;2057067;28;20165;-58
2021/05/28 00:41:27;;;;;;;5.77;3.03;;;;;;;19.55;56.56;99713.66;2056584;28;20026;-58
2021/05/28 00:42:27;;;;;;;4.37;2.93;;;;;;;19.54;56.44;99712.81;2057140;28;20113;-58
2021/05/28 00:43:28;;;;;;;5.27;3.10;;;;;;;19.54;56.56;99707.34;2056539;28;20029;-58
2021/05/28 00:44:28;;;;;;;3.70;2.67;;;;;;;19.54;56.56;99712.81;2056453;28;20041;-58
2021/05/28 00:45:29;;;;;;;6.20;3.20;;;;;;;19.54;56.63;99704.59;2049418;28;20046;-58
2021/05/28 00:46:30;;;;;;;3.88;3.10;;;;;;;19.55;56.44;99708.19;2052473;28;20034;-58
2021/05/28 00:47:30;;;;;;;3.93;2.67;;;;;;;19.55;56.55;99709.06;2057243;28;20042;-58
2021/05/28 00:48:31;;;;;;;5.50;3.10;;;;;;;19.55;56.52;99711.81;2056743;28;20018;-58
2021/05/28 00:49:31;;;;;;;3.33;2.50;;;;;;;19.54;56.59;99707.34;2056452;28;20058;-58
2021/05/28 00:50:32;;;;;;;5.60;3.50;;;;;;;19.54;56.59;99712.81;2055579;28;20088;-58
2021/05/28 00:51:32;;;;;;;4.30;2.70;;;;;;;19.55;56.61;99720.00;2055410;28;20050;-58
2021/05/28 00:52:33;;;;;;;5.33;2.80;;;;;;;19.53;56.65;99713.84;2057229;28;20138;-58
2021/05/28 00:53:34;;;;;;;3.57;2.63;;;;;;;19.54;56.46;99718.28;2053867;28;20118;-58
2021/05/28 00:54:34;;;;;;;6.73;3.07;;;;;;;19.53;56.58;99713.84;2053203;28;20037;-58
2021/05/28 00:55:35;;;;;;;3.87;3.00;;;;;;;19.54;56.55;99718.28;2056573;28;20026;-58
2021/05/28 00:56:38;;;;;;;5.47;3.10;;;;;;;19.55;56.60;99724.59;2056717;28;20035;-58
2021/05/28 00:57:39;;;;;;;5.20;3.00;;;;;;;19.54;56.62;99718.28;2055950;28;20030;-58
2021/05/28 00:58:40;;;;;;;4.40;2.90;;;;;;;19.54;56.67;99718.28;2055820;28;20030;-58
2021/05/28 00:59:42;;;;;;;5.00;3.63;;;;;;;19.54;56.43;99721.00;2056468;28;20034;-58
2021/05/28 01:00:42;;;;;;;3.67;2.72;;;;;;;19.54;56.61;99717.41;2055528;28;20590;-58
2021/05/28 01:01:43;;;;;;;4.00;2.60;;;;;;;19.54;56.68;99717.41;2056530;28;20202;-57
2021/05/28 01:02:43;;;;;;;4.43;2.87;;;;;;;19.54;56.59;99712.81;2056281;28;20062;-58
2021/05/28 01:03:44;;;;;;;5.20;3.13;;;;;;;19.54;56.65;99715.53;2056562;28;20039;-58
2021/05/28 01:04:44;;;;;;;3.63;3.10;;;;;;;19.53;56.78;99716.56;2056612;28;20034;-57
2021/05/28 01:05:45;;;;;;;3.90;2.83;;;;;;;19.53;56.75;99722.03;2056477;28;20054;-58
2021/05/28 01:06:45;;;;;;;5.10;2.73;;;;;;;19.54;56.73;99718.28;2056698;28;20049;-58
2021/05/28 01:07:46;;;;;;;6.47;3.13;;;;;;;19.53;56.74;99721.19;2056554;28;20048;-58
2021/05/28 01:08:46;;;;;;;4.90;2.95;;;;;;;19.54;56.81;99722.88;2056287;28;20038;-58
2021/05/28 01:09:48;;;;;;;6.63;2.80;;;;;;;19.54;56.70;99722.88;2056324;28;20079;-58
2021/05/28 01:10:48;;;;;;;5.80;2.85;;;;;;;19.53;56.72;99727.50;2055443;28;20022;-58
2021/05/28 01:11:48;;;;;;;4.00;3.00;;;;;;;19.54;56.70;99726.47;2053765;28;20535;-58
2021/05/28 01:12:49;;;;;;;5.20;2.80;;;;;;;19.53;56.67;99722.03;2055031;28;20027;-58
2021/05/28 01:13:50;;;;;;;4.10;2.67;;;;;;;19.52;56.73;99723.03;2056543;28;20090;-59
2021/05/28 01:14:50;;;;;;;4.60;2.93;;;;;;;19.53;56.70;99722.03;2056636;28;20113;-58
2021/05/28 01:15:51;;;;;;;6.33;2.80;;;;;;;19.54;56.67;99729.22;2055278;28;21061;-58
2021/05/28 01:16:51;;;;;;;6.83;2.70;;;;;;;19.54;56.63;99723.75;2056600;28;20031;-58
2021/05/28 01:17:52;;;;;;;3.13;2.53;;;;;;;19.54;56.85;99725.63;2055969;28;20135;-57
2021/05/28 01:18:53;;;;;;;5.63;3.17;;;;;;;19.53;56.73;99727.50;2056375;28;20567;-58
2021/05/28 01:19:53;;;;;;;5.03;3.00;;;;;;;19.54;56.65;99725.63;2056103;28;20365;-58
2021/05/28 01:20:54;;;;;;;6.63;3.30;;;;;;;19.53;56.81;99727.50;2054748;28;20312;-58
2021/05/28 01:22:03;;;;;;;4.87;2.87;;;;;;;19.54;56.77;99728.34;2052660;28;20038;-58
2021/05/28 01:23:04;;;;;;;4.13;2.90;;;;;;;19.53;56.88;99732.97;2049958;28;20035;-58
2021/05/28 01:24:05;;;;;;;5.93;2.75;;;;;;;19.53;56.98;99726.66;2056283;28;20030;-58
2021/05/28 01:25:07;;;;;;;5.77;2.57;;;;;;;19.52;56.86;99727.66;2052778;28;20037;-58
2021/05/28 01:26:07;;;;;;;5.00;2.95;;;;;;;19.53;56.90;99732.97;2056396;28;20496;-58
2021/05/28 01:27:10;;;;;;;5.57;3.27;;;;;;;19.53;56.87;99719.31;2056320;28;20045;-57
2021/05/28 01:28:11;;;;;;;3.65;2.42;;;;;;;19.53;56.87;99722.03;2054990;28;20202;-58
2021/05/28 01:29:11;;;;;;;3.93;2.47;;;;;;;19.53;56.92;99722.03;2056235;28;20034;-58
2021/05/28 01:30:13;;;;;;;3.93;2.70;;;;;;;19.52;56.90;99720.31;2056456;28;20030;-58
2021/05/28 01:31:14;;;;;;;;;;;;;;;19.48;56.97;99724.41;2056933;28;20062;-58
2021/05/28 01:32:15;;;;;;;4.40;3.30;;;;;;;19.49;57.08;99726.94;2056112;28;19921;-58
2021/05/28 01:33:15;;;;;;;3.13;2.25;;;;;;;19.49;57.17;99720.63;2056568;28;20026;-58
2021/05/28 01:34:16;;;;;;;5.10;2.60;;;;;;;19.49;57.02;99726.09;2056333;28;20460;-57
2021/05/28 01:35:17;;;;;;;5.27;2.60;;;;;;;19.50;57.10;99730.56;2055945;28;20424;-57
2021/05/28 01:36:17;;;;;;;6.90;3.20;;;;;;;19.50;57.12;99727.84;2056703;28;20061;-58
2021/05/28 01:37:18;;;;;;;5.13;2.87;;;;;;;19.50;57.08;99727.84;2055916;28;20026;-58
2021/05/28 01:38:19;;;;;;;6.57;3.20;;;;;;;19.50;57.09;99722.38;2056112;28;20026;-58
2021/05/28 01:39:19;;;;;;;3.88;2.58;;;;;;;19.50;57.12;99727.84;2056186;28;20034;-58
2021/05/28 01:40:21;;;;;;;6.03;2.93;;;;;;;19.51;56.89;99718.59;2055390;28;20034;-58
2021/05/28 01:41:26;;;;;;;5.85;2.70;;;;;;;19.50;57.02;99716.91;2055677;28;20712;-58
2021/05/28 01:42:26;;;;;;;3.40;2.17;;;;;;;19.49;57.22;99721.50;2056083;28;20410;-58
2021/05/28 01:43:27;;;;;;;7.67;3.30;;;;;;;19.49;57.12;99718.75;2056325;28;20034;-58
2021/05/28 01:44:27;;;;;;;5.73;3.23;;;;;;;19.49;57.19;99721.50;2056193;28;20065;-58
2021/05/28 01:45:28;;;;;;;5.23;2.70;;;;;;;19.49;57.28;99717.91;2056069;28;20518;-58
2021/05/28 01:46:29;;;;;;;6.43;2.60;;;;;;;19.50;57.22;99716.91;2055770;28;20114;-57
2021/05/28 01:47:30;;;;;;;4.53;2.50;;;;;;;19.50;57.16;99711.44;2056235;28;20038;-58
2021/05/28 01:48:30;;;;;;;3.75;2.70;;;;;;;19.49;57.15;99716.03;2054116;28;20034;-57
2021/05/28 01:49:31;;;;;;;5.10;2.47;;;;;;;19.49;57.02;99712.44;2056073;28;20034;-58
2021/05/28 01:50:43;;;;;;;4.67;2.87;;;;;;;19.49;57.08;99715.16;2056533;28;20030;-58
2021/05/28 01:51:51;;;;;;;4.85;2.90;;;;;;;19.47;57.10;99709.84;2048200;28;20433;-58
2021/05/28 01:52:51;;;;;;;4.95;3.20;;;;;;;19.49;57.03;99715.16;2056307;28;20065;-57
2021/05/28 01:53:52;;;;;;;3.40;2.40;;;;;;;19.48;57.13;99713.47;2055249;28;20031;-58
2021/05/28 01:54:52;;;;;;;3.63;2.57;;;;;;;19.48;56.94;99713.47;2056773;28;20062;-58
2021/05/28 01:55:54;;;;;;;4.73;2.87;;;;;;;19.48;56.93;99719.78;2052412;28;20406;-58
2021/05/28 01:56:54;;;;;;;3.83;2.88;;;;;;;19.48;56.96;99724.41;2056615;28;20019;-58
2021/05/28 01:57:56;;;;;;;3.83;2.33;;;;;;;19.48;56.96;99722.53;2055820;28;20456;-58
2021/05/28 01:58:56;;;;;;;5.18;2.28;;;;;;;19.47;56.88;99725.41;2056080;28;20516;-57
2021/05/28 01:59:57;;;;;;;3.67;2.53;;;;;;;19.48;56.91;99725.25;2055995;28;20128;-58
2021/05/28 02:00:58;;;;;;;4.40;2.50;;;;;;;19.47;56.88;99718.06;2051125;28;20035;-58
2021/05/28 02:01:58;;;;;;;3.60;2.37;;;;;;;19.48;56.82;99724.41;2054737;28;20224;-58
2021/05/28 02:02:59;;;;;;;4.00;2.77;;;;;;;19.48;56.92;99727.97;2056042;28;20519;-58
2021/05/28 02:03:59;;;;;;;5.43;2.63;;;;;;;19.48;57.00;99724.41;2056461;28;20426;-58
2021/05/28 02:05:00;;;;;;;5.90;2.60;;;;;;;19.47;56.95;99728.97;2054611;28;20026;-58
2021/05/28 02:06:00;;;;;;;6.63;2.77;;;;;;;19.48;57.01;99727.13;2054770;28;20547;-58
2021/05/28 02:07:01;;;;;;;4.07;2.83;;;;;;;19.48;56.94;99727.13;2056559;28;20113;-58
2021/05/28 02:08:05;;;;;;;4.25;2.63;;;;;;;19.48;57.11;99727.13;2056384;28;20128;-57
2021/05/28 02:09:06;;;;;;;4.57;2.90;;;;;;;19.47;57.07;99728.13;2056017;28;20050;-58
2021/05/28 02:10:07;;;;;;;4.13;2.70;;;;;;;19.48;57.20;99735.34;2056065;28;20812;-58
2021/05/28 02:11:08;;;;;;;5.28;3.75;;;;;;;19.47;57.12;99725.41;2056071;28;20487;-58
2021/05/28 02:12:08;;;;;;;5.80;2.97;;;;;;;19.47;57.17;99728.13;2056112;28;20093;-58
2021/05/28 02:13:09;;;;;;;5.47;2.63;;;;;;;19.46;57.26;99720.97;2056384;28;20026;-58
2021/05/28 02:14:10;;;;;;;3.60;2.50;;;;;;;19.46;57.26;99731.91;2053577;28;20122;-57
2021/05/28 02:15:11;;;;;;;3.93;2.40;;;;;;;19.47;57.34;99722.66;2056378;28;20058;-57
2021/05/28 02:16:12;;;;;;;4.17;2.80;;;;;;;19.46;57.27;99721.81;2055090;28;20104;-58
2021/05/28 02:17:12;;;;;;;4.95;2.85;;;;;;;19.46;57.22;99720.97;2056276;28;20026;-58
2021/05/28 02:18:13;;;;;;;5.37;2.70;;;;;;;19.46;57.36;99716.34;2052589;28;20747;-58
2021/05/28 02:19:14;;;;;;;4.63;2.77;;;;;;;19.47;57.35;99722.66;2053783;28;20129;-58
2021/05/28 02:20:14;;;;;;;3.73;3.00;;;;;;;19.46;57.26;99719.09;2055938;28;20353;-58
2021/05/28 02:21:15;;;;;;;5.73;2.80;;;;;;;19.45;57.33;99720.13;2055498;28;20031;-58
2021/05/28 02:22:15;;;;;;;3.73;2.87;;;;;;;19.46;57.34;99723.69;2055213;28;20140;-58
2021/05/28 02:23:16;;;;;;;3.43;2.70;;;;;;;19.45;57.29;99713.75;2056063;28;20530;-58
2021/05/28 02:24:18;;;;;;;5.47;2.70;;;;;;;19.45;57.33;99719.22;2055531;28;20323;-58
2021/05/28 02:25:19;;;;;;;3.83;2.65;;;;;;;19.45;57.39;99724.69;2055100;28;20314;-58
2021/05/28 02:26:19;;;;;;;6.30;3.00;;;;;;;19.44;57.35;99723.84;2054165;28;20058;-58
2021/05/28 02:27:20;;;;;;;3.77;2.60;;;;;;;19.45;57.39;99724.69;2055423;28;20031;-58
2021/05/28 02:28:21;;;;;;;4.65;2.47;;;;;;;19.45;57.38;99719.22;2056487;28;20054;-58
2021/05/28 02:29:23;;;;;;;3.30;2.58;;;;;;;19.45;57.37;99717.38;2055955;28;20051;-59
2021/05/28 02:30:24;;;;;;;4.78;2.70;;;;;;;19.46;57.27;99715.50;2058165;28;20060;-58
2021/05/28 02:31:24;;;;;;;3.60;2.60;;;;;;;19.45;57.31;99719.22;2057119;28;20125;-58
2021/05/28 02:32:25;;;;;;;3.73;2.50;;;;;;;19.45;57.34;99713.75;2057612;28;20026;-57
2021/05/28 02:33:25;;;;;;;2.97;2.13;;;;;;;19.44;57.24;99712.91;2058368;28;20069;-58
2021/05/28 02:34:26;;;;;;;3.80;3.00;;;;;;;19.45;57.35;99711.03;2057580;28;20110;-58
2021/05/28 02:35:26;;;;;;;4.93;2.70;;;;;;;19.44;57.45;99712.06;2058182;28;20033;-58
2021/05/28 02:36:27;;;;;;;3.83;2.40;;;;;;;19.45;57.35;99711.03;2057146;28;20035;-58
2021/05/28 02:37:29;;;;;;;6.47;2.70;;;;;;;19.45;57.19;99713.75;2057209;28;20030;-58
2021/05/28 02:38:29;;;;;;;4.60;3.00;;;;;;;19.44;57.19;99715.66;2057922;28;20030;-58
2021/05/28 02:39:30;;;;;;;4.67;2.93;;;;;;;19.44;57.17;99707.44;2054577;28;20062;-58
2021/05/28 02:40:30;;;;;;;5.40;3.38;;;;;;;19.44;57.19;99715.66;2052371;28;20038;-57
2021/05/28 02:41:31;;;;;;;3.90;2.30;;;;;;;19.45;57.08;99719.22;2053773;28;20046;-58
2021/05/28 02:42:32;;;;;;;3.13;2.10;;;;;;;19.45;57.26;99713.75;2057869;28;20034;-58
2021/05/28 02:43:34;;;;;;;3.53;2.37;;;;;;;19.45;56.89;99716.50;2057221;28;20087;-58
2021/05/28 02:44:34;;;;;;;4.30;2.70;;;;;;;19.43;57.22;99713.09;2057735;28;20283;-58
2021/05/28 02:45:35;;;;;;;3.67;2.40;;;;;;;19.45;57.18;99713.75;2056609;28;20037;-58
2021/05/28 02:46:35;;;;;;;4.37;2.67;;;;;;;19.44;57.17;99714.81;2057685;28;20037;-58
2021/05/28 02:47:36;;;;;;;3.83;2.53;;;;;;;19.45;57.22;99717.38;2057354;28;20037;-58
2021/05/28 02:48:36;;;;;;;5.23;2.93;;;;;;;19.44;57.17;99712.91;2057134;28;20098;-58
2021/05/28 02:49:37;;;;;;;4.83;2.23;;;;;;;19.44;57.13;99712.91;2053961;28;20345;-58
2021/05/28 02:50:37;;;;;;;4.67;2.53;;;;;;;19.44;57.31;99717.53;2057901;28;20034;-58
2021/05/28 02:51:37;;;;;;;2.90;2.20;;;;;;;19.44;57.21;99714.81;2062793;28;20061;-58
2021/05/28 02:52:38;;;;;;;4.17;2.33;;;;;;;19.44;57.29;99712.06;2064824;28;20406;-58
2021/05/28 02:53:38;;;;;;;3.43;2.50;;;;;;;19.43;57.35;99716.69;2057232;28;20089;-58
2021/05/28 02:54:39;;;;;;;4.63;2.77;;;;;;;19.43;57.24;99713.09;2057804;28;20022;-57
2021/05/28 02:55:39;;;;;;;3.83;2.43;;;;;;;19.42;57.34;99714.09;2057266;28;20186;-58
2021/05/28 02:56:40;;;;;;;3.67;2.67;;;;;;;19.43;57.36;99708.47;2056603;28;20099;-58
2021/05/28 02:57:40;;;;;;;3.70;2.40;;;;;;;19.43;57.50;99715.84;2057885;28;20030;-58
2021/05/28 02:58:41;;;;;;;5.40;2.67;;;;;;;19.43;57.44;99715.84;2056828;28;20042;-58
2021/05/28 02:59:41;;;;;;;4.00;2.57;;;;;;;19.42;57.45;99712.22;2056358;28;20046;-58
2021/05/28 03:00:42;;;;;;;3.10;2.40;;;;;;;19.43;57.45;99721.28;2058110;28;20143;-58
2021/05/28 03:01:42;;;;;;;2.77;2.27;;;;;;;19.43;57.39;99715.84;2056926;28;20042;-58
2021/05/28 03:02:43;;;;;;;4.17;2.23;;;;;;;19.43;57.46;99718.56;2058122;28;20030;-57
2021/05/28 03:03:43;;;;;;;4.07;2.50;;;;;;;19.43;57.39;99715.84;2055479;28;20038;-58
2021/05/28 03:04:44;;;;;;;5.23;2.20;;;;;;;19.43;57.39;99713.09;2056453;28;20046;-58
2021/05/28 03:05:44;;;;;;;4.50;2.57;;;;;;;19.43;57.34;99713.09;2057132;28;20445;-58
2021/05/28 03:06:45;;;;;;;3.93;2.60;;;;;;;19.43;57.37;99710.38;2057722;28;20019;-58
2021/05/28 03:07:45;;;;;;;4.07;3.07;;;;;;;19.41;57.30;99712.41;2057257;28;20831;-58
2021/05/28 03:08:46;;;;;;;4.93;2.40;;;;;;;19.43;57.35;99711.22;2055367;28;20429;-58
2021/05/28 03:09:46;;;;;;;5.27;2.13;;;;;;;19.42;57.32;99709.47;2057366;28;20030;-58
2021/05/28 03:10:47;;;;;;;4.97;2.27;;;;;;;19.42;57.21;99714.94;2057405;28;20034;-58
2021/05/28 03:11:48;;;;;;;3.63;2.40;;;;;;;19.43;57.42;99713.09;2057090;28;20030;-58
2021/05/28 03:12:48;;;;;;;5.63;2.37;;;;;;;19.41;57.39;99715.13;2057913;28;20162;-57
2021/05/28 03:13:49;;;;;;;5.63;2.90;;;;;;;19.42;57.43;99714.09;2057438;28;20438;-58
2021/05/28 03:14:49;;;;;;;3.83;2.57;;;;;;;19.42;57.41;99719.56;2056648;28;20035;-58
2021/05/28 03:15:50;;;;;;;3.50;1.97;;;;;;;19.42;57.46;99714.09;2057750;28;20035;-58
2021/05/28 03:16:50;;;;;;;3.77;2.40;;;;;;;19.42;57.46;99714.09;2057050;28;20360;-58
2021/05/28 03:17:52;;;;;;;4.03;2.10;;;;;;;19.42;57.40;99719.56;2057516;28;20031;-57
2021/05/28 03:18:56;;;;;;;4.32;2.65;;;;;;;19.42;57.42;99714.09;2056298;28;20030;-58
2021/05/28 03:19:57;;;;;;;4.13;2.15;;;;;;;19.42;57.54;99714.09;2051925;28;20027;-58
2021/05/28 03:21:15;;;;;;;3.57;2.57;;;;;;;19.41;57.49;99713.25;2057318;28;20037;-58
2021/05/28 03:22:35;;;;;;;2.83;2.20;;;;;;;19.40;57.51;99718.88;2056076;28;20277;-58
2021/05/28 03:23:36;;;;;;;3.85;2.22;;;;;;;19.39;57.52;99715.28;2057313;28;20114;-57
2021/05/28 03:24:36;;;;;;;3.73;2.37;;;;;;;19.39;57.54;99720.75;2056904;28;20042;-58
2021/05/28 03:25:38;;;;;;;4.17;2.50;;;;;;;19.40;57.45;99716.13;2057099;28;20429;-58
2021/05/28 03:26:38;;;;;;;;;;;;;;;19.35;57.64;99713.88;2054544;28;20122;-58
2021/05/28 03:27:40;;;;;;;4.20;2.40;;;;;;;19.37;57.49;99709.09;2056717;28;19937;-58
2021/05/28 03:28:40;;;;;;;4.57;2.58;;;;;;;19.38;57.38;99707.25;2056276;28;20031;-58
2021/05/28 03:29:40;;;;;;;3.33;2.70;;;;;;;19.38;57.43;99707.25;2057446;28;20047;-58
2021/05/28 03:30:41;;;;;;;4.17;2.80;;;;;;;19.38;57.52;99713.56;2057317;28;20716;-58
2021/05/28 03:31:41;;;;;;;3.30;2.20;;;;;;;19.38;57.49;99713.56;2057781;28;20188;-58
2021/05/28 03:32:42;;;;;;;4.33;2.47;;;;;;;19.39;57.32;99703.50;2057385;28;20058;-58
2021/05/28 03:33:43;;;;;;;3.73;2.53;;;;;;;19.38;57.41;99707.25;2057581;28;20039;-58
2021/05/28 03:34:44;;;;;;;4.23;2.90;;;;;;;19.39;57.58;99715.28;2057010;28;20054;-58
2021/05/28 03:35:44;;;;;;;3.40;2.00;;;;;;;19.40;57.48;99713.41;2057565;28;20061;-57
2021/05/28 03:36:45;;;;;;;4.63;2.77;;;;;;;19.38;57.53;99718.19;2057381;28;20054;-58
2021/05/28 03:37:45;;;;;;;3.40;2.10;;;;;;;19.38;57.47;99716.31;2057283;28;20629;-58
2021/05/28 03:38:47;;;;;;;3.63;2.17;;;;;;;19.39;57.53;99728.09;2057487;28;20042;-58
2021/05/28 03:39:48;;;;;;;3.95;2.60;;;;;;;19.39;57.57;99722.63;2057097;28;20518;-58
2021/05/28 03:40:49;;;;;;;5.55;2.70;;;;;;;19.38;57.51;99719.03;2056245;28;20485;-58
2021/05/28 03:41:49;;;;;;;3.37;2.50;;;;;;;19.38;57.66;99718.19;2057508;28;20042;-58
2021/05/28 03:42:50;;;;;;;5.70;2.67;;;;;;;19.38;57.58;99712.72;2056976;28;20041;-57
2021/05/28 03:43:50;;;;;;;4.73;2.43;;;;;;;19.38;57.64;99715.47;2057361;28;20081;-58
2021/05/28 03:44:51;;;;;;;3.57;2.40;;;;;;;19.38;57.52;99707.25;2057129;28;20042;-58
2021/05/28 03:45:52;;;;;;;3.60;2.37;;;;;;;19.38;57.72;99719.03;2056819;28;20035;-58
2021/05/28 03:46:54;;;;;;;3.87;2.20;;;;;;;19.39;57.58;99708.97;2056797;28;20105;-58
2021/05/28 03:47:54;;;;;;;5.40;2.00;;;;;;;19.38;57.58;99708.09;2056566;28;20034;-57
2021/05/28 03:48:54;;;;;;;6.03;2.87;;;;;;;19.39;57.54;99714.44;2057185;28;20062;-58
2021/05/28 03:49:55;;;;;;;2.57;2.13;;;;;;;19.37;57.47;99706.38;2056848;28;20107;-58
2021/05/28 03:50:56;;;;;;;4.37;2.50;;;;;;;19.37;57.54;99711.84;2056903;28;20043;-58
2021/05/28 03:51:56;;;;;;;3.53;2.27;;;;;;;19.38;57.58;99712.72;2057468;28;20038;-58
2021/05/28 03:52:57;;;;;;;4.57;2.43;;;;;;;19.37;57.51;99711.84;2056557;28;20030;-58
2021/05/28 03:53:57;;;;;;;3.27;2.50;;;;;;;19.38;57.60;99710.00;2057480;28;20023;-58
2021/05/28 03:54:58;;;;;;;4.00;2.70;;;;;;;19.37;57.64;99711.00;2056541;28;20023;-58
2021/05/28 03:55:58;;;;;;;3.30;2.37;;;;;;;19.38;57.69;99710.00;2056490;28;20051;-55
2021/05/28 03:56:58;;;;;;;5.27;2.30;;;;;;;19.37;57.59;99706.38;2054055;28;20429;-58
2021/05/28 03:57:59;;;;;;;3.53;2.37;;;;;;;19.37;57.70;99705.53;2056361;28;20082;-56
2021/05/28 03:58:59;;;;;;;5.00;2.63;;;;;;;19.37;57.60;99706.38;2057588;28;20045;-56
2021/05/28 04:00:00;;;;;;;3.50;2.50;;;;;;;19.37;57.64;99702.78;2054627;28;20418;-55
2021/05/28 04:01:00;;;;;;;4.97;2.47;;;;;;;19.38;57.68;99699.06;2057352;28;20038;-56
2021/05/28 04:02:02;;;;;;;2.60;2.10;;;;;;;19.37;57.56;99709.09;2056689;28;20027;-56
2021/05/28 04:03:02;;;;;;;3.47;2.80;;;;;;;19.37;57.66;99705.53;2056634;28;20084;-56
2021/05/28 04:04:03;;;;;;;3.50;2.33;;;;;;;19.37;57.66;99706.38;2056358;28;20026;-56
2021/05/28 04:05:04;;;;;;;3.83;2.30;;;;;;;19.37;57.62;99694.59;2057080;28;20046;-56
2021/05/28 04:06:04;;;;;;;4.23;2.10;;;;;;;19.37;57.52;99702.78;2057532;28;20066;-56
2021/05/28 04:07:05;;;;;;;4.37;2.40;;;;;;;19.37;57.66;99703.66;2056155;28;20298;-56
2021/05/28 04:08:05;;;;;;;3.83;2.77;;;;;;;19.38;57.61;99708.09;2057073;28;20087;-56
2021/05/28 04:09:06;;;;;;;4.80;2.50;;;;;;;19.37;57.63;99705.53;2056713;28;20358;-56
2021/05/28 04:10:07;;;;;;;3.63;2.30;;;;;;;19.36;57.49;99703.81;2056705;28;20054;-56
2021/05/28 04:11:08;;;;;;;4.10;2.90;;;;;;;19.36;57.60;99704.69;2057288;28;20027;-56
2021/05/28 04:12:08;;;;;;;3.03;2.43;;;;;;;19.37;57.56;99694.59;2056457;28;20103;-56
2021/05/28 04:13:09;;;;;;;3.57;2.50;;;;;;;19.37;57.55;99700.91;2057103;28;20030;-56
2021/05/28 04:14:09;;;;;;;3.57;2.30;;;;;;;19.37;57.62;99700.06;2057186;28;20027;-56
2021/05/28 04:15:11;;;;;;;6.03;2.97;;;;;;;19.37;57.61;99697.31;2056525;28;20022;-57
2021/05/28 04:16:11;;;;;;;;;;;;;;;19.33;57.67;99698.66;2057709;28;20077;-55
2021/05/28 04:17:12;;;;;;;4.53;2.70;;;;;;;19.34;57.63;99700.38;2056853;28;19918;-56
2021/05/28 04:18:12;;;;;;;2.33;1.90;;;;;;;19.33;57.67;99699.53;2057095;28;20023;-56
2021/05/28 04:19:12;;;;;;;3.17;2.60;;;;;;;19.34;57.68;99697.66;2056356;28;20532;-56
2021/05/28 04:20:13;;;;;;;4.07;2.30;;;;;;;19.35;57.69;99702.09;2056575;28;20038;-56
2021/05/28 04:21:14;;;;;;;4.28;2.40;;;;;;;19.35;57.64;99691.16;2057081;28;20038;-56
2021/05/28 04:22:14;;;;;;;2.80;1.90;;;;;;;19.35;57.66;99693.91;2056296;28;20441;-56
2021/05/28 04:23:15;;;;;;;3.83;2.33;;;;;;;19.35;57.65;99697.47;2057340;28;20069;-56
2021/05/28 04:24:15;;;;;;;3.10;2.20;;;;;;;19.35;57.55;99699.34;2056968;28;20175;-56
2021/05/28 04:25:16;;;;;;;2.90;2.47;;;;;;;19.36;57.54;99698.34;2056514;28;20026;-56
2021/05/28 04:26:16;;;;;;;4.30;2.50;;;;;;;19.35;57.56;99700.22;2057276;28;20073;-56
2021/05/28 04:27:17;;;;;;;4.50;1.83;;;;;;;19.36;57.62;99701.09;2052708;28;20041;-56
2021/05/28 04:28:17;;;;;;;3.87;2.50;;;;;;;19.35;57.72;99702.09;2057154;28;20066;-56
2021/05/28 04:29:19;;;;;;;3.40;2.30;;;;;;;19.34;57.59;99703.97;2056737;28;20552;-56
2021/05/28 04:30:24;;;;;;;4.20;2.20;;;;;;;19.35;57.50;99707.56;2056756;28;20073;-56
2021/05/28 04:31:24;;;;;;;3.33;2.50;;;;;;;19.34;57.67;99701.25;2051247;28;20050;-56
2021/05/28 04:32:24;;;;;;;3.23;2.40;;;;;;;19.35;57.62;99704.81;2055511;28;20118;-56
2021/05/28 04:33:25;;;;;;;2.97;2.10;;;;;;;19.34;57.48;99700.38;2053431;28;20038;-56
2021/05/28 04:34:26;;;;;;;3.40;2.30;;;;;;;19.35;57.58;99702.09;2050407;28;20031;-55
2021/05/28 04:35:26;;;;;;;3.93;2.70;;;;;;;19.34;57.55;99703.13;2056782;28;20038;-56
2021/05/28 04:36:27;;;;;;;4.03;2.30;;;;;;;19.34;57.57;99701.25;2056303;28;20100;-56
2021/05/28 04:37:27;;;;;;;3.77;2.30;;;;;;;19.35;57.61;99702.09;2056150;28;20034;-56
2021/05/28 04:38:28;;;;;;;3.20;2.10;;;;;;;19.36;57.54;99709.28;2057176;28;20089;-55
2021/05/28 04:39:28;;;;;;;3.73;2.57;;;;;;;19.36;57.65;99709.28;2056764;28;20041;-56
2021/05/28 04:40:31;;;;;;;5.47;2.90;;;;;;;19.36;57.45;99714.75;2056820;28;20034;-56
2021/05/28 04:41:31;;;;;;;3.55;2.33;;;;;;;19.36;57.53;99715.59;2052102;28;20026;-56
2021/05/28 04:42:31;;;;;;;2.63;2.13;;;;;;;19.36;57.53;99714.75;2055536;28;20038;-56
2021/05/28 04:43:32;;;;;;;4.50;2.53;;;;;;;19.35;57.49;99713.03;2056438;28;20126;-56
2021/05/28 04:44:32;;;;;;;3.33;2.60;;;;;;;19.36;57.50;99714.75;2055505;28;20035;-56
2021/05/28 04:45:33;;;;;;;3.57;2.40;;;;;;;19.37;57.44;99716.47;2056563;28;20520;-56
2021/05/28 04:46:34;;;;;;;4.00;2.50;;;;;;;19.36;57.52;99720.22;2063642;28;20095;-56
2021/05/28 04:47:34;;;;;;;3.63;2.10;;;;;;;19.36;57.41;99722.97;2054925;28;20622;-56